Time;durP1;ratioP1;P1;durP2;ratioP2;P2;SDS_P1;SDS_P2;PMS_P1;PMS_P2;Temp;Humidity;BMP_temperature;BMP_pressure;BME280_temperature;BME280_humidity;BME280_pressure;Samples;Min_cycle;Max_cycle;Signal;HPM_P1;HPM_P2
2022/05/02 00:00:51;;;;;;;4.65;1.00;;;20.30;52.60;;;;;;4979354;28;20051;-16
2022/05/02 00:03:16;;;;;;;0.80;0.80;;;20.30;52.70;;;;;;4979268;28;20504;-16
2022/05/02 00:05:42;;;;;;;0.80;0.80;;;20.40;52.50;;;;;;4970699;28;20051;-16
2022/05/02 00:08:08;;;;;;;0.90;0.90;;;20.40;52.40;;;;;;4961073;28;20077;-15
2022/05/02 00:10:34;;;;;;;0.70;0.70;;;20.40;52.50;;;;;;4979162;28;20046;-16
2022/05/02 00:13:01;;;;;;;0.80;0.80;;;20.40;52.40;;;;;;4978874;28;20042;-16
2022/05/02 00:15:27;;;;;;;0.80;0.80;;;20.30;52.50;;;;;;4978955;28;20042;-16
2022/05/02 00:17:59;;;;;;;1.15;1.05;;;20.30;52.60;;;;;;4979726;28;20529;-16
2022/05/02 00:20:30;;;;;;;0.77;0.77;;;20.40;52.60;;;;;;4971770;28;20127;-15
2022/05/02 00:23:00;;;;;;;0.77;0.77;;;20.40;52.50;;;;;;4959729;28;20059;-17
2022/05/02 00:25:26;;;;;;;0.60;0.60;;;20.40;52.50;;;;;;4971765;28;20413;-16
2022/05/02 00:27:51;;;;;;;0.80;0.80;;;20.40;52.50;;;;;;4971670;28;20054;-16
2022/05/02 00:30:17;;;;;;;0.90;0.90;;;20.40;52.50;;;;;;4977435;28;20051;-15
2022/05/02 00:32:43;;;;;;;0.88;0.88;;;20.40;52.50;;;;;;4978644;28;20792;-16
2022/05/02 00:35:09;;;;;;;0.68;0.68;;;20.40;52.50;;;;;;4979300;28;20052;-15
2022/05/02 00:37:38;;;;;;;0.82;0.70;;;20.40;52.70;;;;;;4973175;28;20039;-16
2022/05/02 00:40:05;;;;;;;1.00;0.70;;;20.40;52.50;;;;;;4975295;28;20055;-16
2022/05/02 00:42:31;;;;;;;0.75;0.75;;;20.40;52.60;;;;;;4978265;28;20042;-15
2022/05/02 00:44:56;;;;;;;0.80;0.80;;;20.40;52.50;;;;;;4979226;28;20057;-16
2022/05/02 00:47:22;;;;;;;0.80;0.80;;;20.40;52.60;;;;;;4973278;28;20043;-16
2022/05/02 00:49:50;;;;;;;1.00;0.93;;;20.40;52.80;;;;;;4972499;28;20142;-16
2022/05/02 00:52:17;;;;;;;1.05;1.02;;;20.40;52.60;;;;;;4978815;28;20070;-16
2022/05/02 00:54:43;;;;;;;0.85;0.80;;;20.40;52.70;;;;;;4964433;28;20086;-16
2022/05/02 00:57:10;;;;;;;0.90;0.90;;;20.30;52.60;;;;;;4959563;28;20101;-16
2022/05/02 00:59:38;;;;;;;0.50;0.50;;;20.30;52.70;;;;;;4967514;28;20043;-15
2022/05/02 01:02:05;;;;;;;1.00;1.00;;;20.30;52.70;;;;;;4978554;28;20137;-16
2022/05/02 01:04:30;;;;;;;1.10;1.10;;;20.30;52.70;;;;;;4978091;28;20408;-16
2022/05/02 01:07:11;;;;;;;1.67;0.85;;;20.40;52.60;;;;;;4977159;28;20035;-16
2022/05/02 01:09:44;;;;;;;0.82;0.82;;;20.40;52.70;;;;;;4976935;28;20081;-15
2022/05/02 01:12:12;;;;;;;0.82;0.82;;;20.40;52.70;;;;;;4978628;28;20102;-16
2022/05/02 01:14:38;;;;;;;0.70;0.70;;;20.30;52.60;;;;;;4977241;28;20523;-15
2022/05/02 01:17:04;;;;;;;0.98;0.98;;;20.40;52.60;;;;;;4978510;28;20527;-16
2022/05/02 01:19:29;;;;;;;0.82;0.70;;;20.30;52.80;;;;;;4976853;28;20058;-15
2022/05/02 01:21:55;;;;;;;0.88;0.88;;;20.30;52.80;;;;;;4977652;28;20050;-15
2022/05/02 01:24:21;;;;;;;0.70;0.70;;;20.30;52.80;;;;;;4977697;28;20499;-16
2022/05/02 01:26:46;;;;;;;0.75;0.75;;;20.40;52.70;;;;;;4989192;28;20470;-16
2022/05/02 01:29:12;;;;;;;0.80;0.80;;;20.30;52.90;;;;;;4999669;28;20050;-16
2022/05/02 01:31:37;;;;;;;0.80;0.80;;;20.30;52.90;;;;;;4965429;28;20047;-16
2022/05/02 01:34:03;;;;;;;0.68;0.68;;;20.40;52.90;;;;;;4958862;28;20043;-15
2022/05/02 01:36:29;;;;;;;0.88;0.88;;;20.40;52.90;;;;;;4959834;28;20070;-16
2022/05/02 01:38:54;;;;;;;0.90;0.90;;;20.40;53.00;;;;;;4977754;28;20054;-16
2022/05/02 01:41:20;;;;;;;0.90;0.90;;;20.40;53.00;;;;;;4977464;28;20039;-16
2022/05/02 01:43:45;;;;;;;0.80;0.80;;;20.30;52.90;;;;;;4975912;28;20054;-16
2022/05/02 01:46:12;;;;;;;0.93;0.93;;;20.40;53.00;;;;;;4971835;28;20038;-16
2022/05/02 01:48:37;;;;;;;0.70;0.70;;;20.40;53.00;;;;;;4962052;28;20047;-16
2022/05/02 01:51:03;;;;;;;0.60;0.60;;;20.40;53.00;;;;;;4977802;28;20053;-16
2022/05/02 01:53:29;;;;;;;0.85;0.85;;;20.40;53.00;;;;;;4966540;28;20051;-16
2022/05/02 01:55:54;;;;;;;0.73;0.73;;;20.30;52.90;;;;;;4958323;28;20078;-16
2022/05/02 01:58:20;;;;;;;0.80;0.80;;;20.40;53.00;;;;;;4974983;28;20047;-16
2022/05/02 02:00:46;;;;;;;0.80;0.80;;;20.30;53.10;;;;;;4977037;28;20047;-16
2022/05/02 02:03:11;;;;;;;0.80;0.80;;;20.40;53.10;;;;;;4977626;28;20038;-15
2022/05/02 02:05:49;;;;;;;0.80;0.80;;;20.40;53.10;;;;;;4976279;28;20050;-15
2022/05/02 02:08:16;;;;;;;0.88;0.88;;;20.40;53.10;;;;;;4976937;28;20185;-15
2022/05/02 02:10:43;;;;;;;1.10;1.10;;;20.40;53.10;;;;;;4976781;28;20035;-16
2022/05/02 02:13:08;;;;;;;1.25;0.70;;;20.40;53.00;;;;;;4970256;28;20047;-15
2022/05/02 02:15:34;;;;;;;0.90;0.90;;;20.40;53.00;;;;;;4957599;28;20043;-16
2022/05/02 02:17:59;;;;;;;0.75;0.75;;;20.40;53.00;;;;;;4970068;28;20571;-16
2022/05/02 02:20:25;;;;;;;0.75;0.75;;;20.40;53.10;;;;;;4975331;28;20053;-17
2022/05/02 02:22:50;;;;;;;0.90;0.90;;;20.40;53.20;;;;;;4975840;28;20046;-16
2022/05/02 02:25:16;;;;;;;0.80;0.80;;;20.40;53.00;;;;;;4977218;28;20047;-17
2022/05/02 02:27:42;;;;;;;0.75;0.75;;;20.40;53.20;;;;;;4974860;28;20101;-16
2022/05/02 02:30:08;;;;;;;0.98;0.98;;;20.30;53.10;;;;;;4971898;28;20090;-15
2022/05/02 02:32:34;;;;;;;0.90;0.90;;;20.30;53.10;;;;;;4987859;28;20054;-16
2022/05/02 02:34:59;;;;;;;1.13;0.90;;;20.30;53.10;;;;;;4958906;28;20039;-15
2022/05/02 02:37:25;;;;;;;0.95;0.85;;;20.30;53.10;;;;;;4976164;28;20074;-16
2022/05/02 02:39:50;;;;;;;1.08;0.80;;;20.40;53.20;;;;;;4976181;28;20186;-16
2022/05/02 02:42:16;;;;;;;0.98;0.98;;;20.30;53.80;;;;;;4964421;28;20423;-16
2022/05/02 02:44:42;;;;;;;1.00;1.00;;;20.30;53.10;;;;;;4956995;28;20039;-16
2022/05/02 02:47:07;;;;;;;1.10;1.00;;;20.30;53.10;;;;;;4974697;28;20430;-17
2022/05/02 02:49:33;;;;;;;0.88;0.88;;;20.30;53.40;;;;;;4962205;28;20122;-16
2022/05/02 02:51:58;;;;;;;0.90;0.90;;;20.30;53.50;;;;;;4976732;28;20051;-16
2022/05/02 02:54:24;;;;;;;0.80;0.80;;;20.30;53.30;;;;;;4975942;28;20508;-15
2022/05/02 02:56:50;;;;;;;1.00;1.00;;;20.30;53.40;;;;;;4974578;28;20105;-16
2022/05/02 02:59:15;;;;;;;0.80;0.80;;;20.30;53.50;;;;;;4976574;28;20516;-16
2022/05/02 03:01:41;;;;;;;0.80;0.80;;;20.30;53.50;;;;;;4968036;28;20118;-16
2022/05/02 03:06:51;;;;;;;0.75;0.75;;;20.30;53.30;;;;;;4966352;28;20510;-16
2022/05/02 03:09:17;;;;;;;0.75;0.75;;;20.30;53.50;;;;;;4957445;28;20476;-15
2022/05/02 03:11:42;;;;;;;0.88;0.88;;;20.30;54.00;;;;;;4969303;28;20114;-15
2022/05/02 03:14:08;;;;;;;0.95;0.95;;;20.30;53.70;;;;;;4973078;28;20054;-16
2022/05/02 03:16:33;;;;;;;1.35;1.35;;;20.30;53.60;;;;;;4969293;28;20050;-16
2022/05/02 03:18:59;;;;;;;0.90;0.90;;;20.30;53.50;;;;;;4976536;28;20098;-15
2022/05/02 03:21:25;;;;;;;0.88;0.88;;;20.30;53.50;;;;;;4976457;28;20042;-16
2022/05/02 03:23:50;;;;;;;0.90;0.90;;;20.30;53.50;;;;;;4973204;28;20046;-16
2022/05/02 03:26:16;;;;;;;0.90;0.90;;;20.30;53.30;;;;;;4976481;28;20067;-15
2022/05/02 03:28:41;;;;;;;0.98;0.98;;;20.30;53.40;;;;;;4975327;28;20066;-16
2022/05/02 03:31:07;;;;;;;0.90;0.90;;;20.30;53.50;;;;;;4975590;28;20042;-15
2022/05/02 03:33:32;;;;;;;1.00;1.00;;;20.30;53.50;;;;;;4972031;28;20047;-16
2022/05/02 03:35:58;;;;;;;1.00;1.00;;;20.30;53.60;;;;;;4961143;28;20044;-16
2022/05/02 03:38:24;;;;;;;1.05;1.05;;;20.30;53.60;;;;;;4977188;28;20038;-16
2022/05/02 03:40:49;;;;;;;0.90;0.90;;;20.30;53.60;;;;;;4979562;28;20093;-15
2022/05/02 03:43:15;;;;;;;0.80;0.80;;;20.30;53.60;;;;;;4979737;28;20058;-16
2022/05/02 03:45:41;;;;;;;0.90;0.90;;;20.30;53.60;;;;;;4979049;28;20133;-15
2022/05/02 03:48:06;;;;;;;0.98;0.98;;;20.30;53.60;;;;;;4979919;28;20053;-15
2022/05/02 03:50:32;;;;;;;0.80;0.80;;;20.20;53.50;;;;;;4979407;28;20373;-16
2022/05/02 03:52:58;;;;;;;1.00;1.00;;;20.30;53.60;;;;;;4975745;28;20049;-18
2022/05/02 03:55:23;;;;;;;1.00;1.00;;;20.20;53.70;;;;;;4979787;28;20046;-16
2022/05/02 03:57:49;;;;;;;1.00;1.00;;;20.20;53.60;;;;;;4977767;28;20508;-15
2022/05/02 04:00:15;;;;;;;0.88;0.88;;;20.20;53.60;;;;;;4979837;28;20038;-19
2022/05/02 04:02:40;;;;;;;0.75;0.70;;;20.20;53.70;;;;;;4976774;28;20114;-16
2022/05/02 04:05:07;;;;;;;0.75;0.75;;;20.20;53.80;;;;;;4979051;28;20046;-15
2022/05/02 04:07:32;;;;;;;0.70;0.70;;;20.20;53.90;;;;;;4976683;28;20075;-16
2022/05/02 04:09:58;;;;;;;0.80;0.80;;;20.20;53.70;;;;;;4979384;28;20512;-16
2022/05/02 04:12:24;;;;;;;0.82;0.82;;;20.20;53.70;;;;;;4977333;28;20404;-17
2022/05/02 04:14:49;;;;;;;0.80;0.80;;;20.20;53.90;;;;;;4971591;28;20054;-16
2022/05/02 04:17:15;;;;;;;0.70;0.70;;;20.20;53.80;;;;;;4960283;28;20428;-16
2022/05/02 04:19:41;;;;;;;0.75;0.75;;;20.20;53.80;;;;;;5000618;28;20046;-16
2022/05/02 04:22:06;;;;;;;0.90;0.90;;;20.30;53.80;;;;;;4976296;28;20051;-17
2022/05/02 04:24:32;;;;;;;0.82;0.82;;;20.20;53.80;;;;;;4976826;28;20424;-19
2022/05/02 04:26:57;;;;;;;0.80;0.80;;;20.20;53.80;;;;;;4978627;28;20053;-17
2022/05/02 04:29:23;;;;;;;0.85;0.85;;;20.30;53.80;;;;;;4978115;28;20038;-17
2022/05/02 04:31:49;;;;;;;1.15;1.15;;;20.20;53.80;;;;;;4978249;28;20043;-17
2022/05/02 04:34:15;;;;;;;1.30;0.80;;;20.20;53.90;;;;;;4977675;28;20054;-17
2022/05/02 04:36:40;;;;;;;0.73;0.73;;;20.20;53.90;;;;;;4975749;28;20047;-16
2022/05/02 04:39:06;;;;;;;1.00;1.00;;;20.20;54.60;;;;;;4977867;28;20415;-16
2022/05/02 04:41:32;;;;;;;1.05;0.90;;;20.20;53.90;;;;;;4976471;28;20125;-17
2022/05/02 04:43:57;;;;;;;1.20;1.10;;;20.20;54.00;;;;;;4975890;28;20074;-17
2022/05/02 04:46:23;;;;;;;1.15;1.15;;;20.20;53.90;;;;;;4977677;28;20031;-17
2022/05/02 04:48:48;;;;;;;1.10;1.10;;;20.20;53.90;;;;;;4976747;28;20058;-16
2022/05/02 04:51:14;;;;;;;1.00;1.00;;;20.20;53.90;;;;;;4975255;28;20035;-16
2022/05/02 04:53:40;;;;;;;1.42;1.08;;;20.20;54.00;;;;;;4974775;28;20138;-17
2022/05/02 04:56:05;;;;;;;0.90;0.90;;;20.20;54.00;;;;;;4977175;28;20054;-17
2022/05/02 04:58:31;;;;;;;1.15;1.10;;;20.20;54.10;;;;;;4976699;28;20465;-16
2022/05/02 05:00:56;;;;;;;0.75;0.75;;;20.20;54.10;;;;;;4958881;28;20047;-17
2022/05/02 05:03:22;;;;;;;1.10;1.10;;;20.20;54.20;;;;;;4969210;28;20457;-16
2022/05/02 05:05:48;;;;;;;2.72;1.17;;;20.20;55.00;;;;;;4630296;28;10000727;-17
2022/05/02 05:08:14;;;;;;;1.35;0.93;;;20.20;54.30;;;;;;4973104;28;20039;-18
2022/05/02 05:10:51;;;;;;;0.90;0.90;;;20.20;54.50;;;;;;4979440;28;20054;-17
2022/05/02 05:13:19;;;;;;;1.35;1.17;;;20.10;54.40;;;;;;4975285;28;20050;-17
2022/05/02 05:16:21;;;;;;;1.10;1.10;;;20.20;54.40;;;;;;4973546;28;20072;-17
2022/05/02 05:19:03;;;;;;;0.80;0.80;;;20.20;54.50;;;;;;4966374;28;20050;-17
2022/05/02 05:21:38;;;;;;;0.98;0.98;;;20.20;54.60;;;;;;4969421;28;20582;-17
2022/05/02 05:24:27;;;;;;;1.83;1.13;;;20.20;54.70;;;;;;4993917;28;20045;-16
2022/05/02 05:27:31;;;;;;;1.23;1.10;;;20.20;55.00;;;;;;4984824;28;20663;-17
2022/05/02 05:30:02;;;;;;;0.85;0.85;;;20.20;55.00;;;;;;4985098;28;20130;-17
2022/05/02 05:32:46;;;;;;;2.05;0.88;;;20.20;54.80;;;;;;4974162;28;20047;-17
2022/05/02 05:35:15;;;;;;;1.13;1.10;;;20.10;55.20;;;;;;4961889;28;20063;-17
2022/05/02 05:37:58;;;;;;;0.93;0.93;;;20.10;55.30;;;;;;4963782;28;20118;-17
2022/05/02 05:40:26;;;;;;;2.63;1.30;;;20.20;55.30;;;;;;4997506;28;20027;-16
2022/05/02 05:43:07;;;;;;;2.75;1.02;;;20.20;55.10;;;;;;4971964;28;20046;-18
2022/05/02 05:45:52;;;;;;;1.20;1.20;;;20.20;55.20;;;;;;4967756;28;20039;-17
2022/05/02 05:48:23;;;;;;;;;;;20.20;55.20;;;;;;4957406;28;20055;-17
2022/05/02 05:50:51;;;;;;;0.90;0.90;;;20.20;55.40;;;;;;4992418;28;20269;-17
2022/05/02 05:53:39;;;;;;;1.42;1.00;;;20.20;55.10;;;;;;4956023;28;20116;-17
2022/05/02 05:56:23;;;;;;;2.60;0.95;;;20.20;55.40;;;;;;4955762;28;20051;-17
2022/05/02 05:58:52;;;;;;;2.88;1.08;;;20.20;55.80;;;;;;4966395;28;20055;-16
2022/05/02 06:01:55;;;;;;;0.95;0.95;;;20.20;55.80;;;;;;4970337;28;20042;-17
2022/05/02 06:04:22;;;;;;;0.95;0.95;;;20.20;55.90;;;;;;4969141;28;20054;-17
2022/05/02 06:06:48;;;;;;;1.95;1.25;;;20.10;55.60;;;;;;4970737;28;20118;-17
2022/05/02 06:09:14;;;;;;;1.13;1.00;;;20.10;55.80;;;;;;4973316;28;20039;-17
2022/05/02 06:11:40;;;;;;;2.15;1.38;;;20.10;55.50;;;;;;4974137;28;20054;-17
2022/05/02 06:14:05;;;;;;;0.90;0.90;;;20.20;55.80;;;;;;4969768;28;20038;-17
2022/05/02 06:19:17;;;;;;;1.67;1.13;;;20.20;55.30;;;;;;4971615;28;20050;-17
2022/05/02 06:21:43;;;;;;;2.67;1.25;;;20.20;55.40;;;;;;4975071;28;20042;-17
2022/05/02 06:24:13;;;;;;;1.17;1.15;;;20.20;55.50;;;;;;4973650;28;20089;-16
2022/05/02 06:26:39;;;;;;;2.25;1.10;;;20.20;55.60;;;;;;4973549;28;20454;-17
2022/05/02 06:29:09;;;;;;;2.97;1.20;;;20.20;55.90;;;;;;4974370;28;20039;-16
2022/05/02 06:31:54;;;;;;;4.88;1.25;;;20.10;55.80;;;;;;4972050;28;20047;-17
2022/05/02 06:34:25;;;;;;;3.53;1.00;;;20.20;55.60;;;;;;4966781;28;20533;-17
2022/05/02 06:37:05;;;;;;;2.17;1.02;;;20.20;55.80;;;;;;4971301;28;20197;-17
2022/05/02 06:40:02;;;;;;;1.67;1.20;;;20.20;55.90;;;;;;4998337;28;20121;-17
2022/05/02 06:42:35;;;;;;;1.08;1.00;;;20.20;55.60;;;;;;4965891;28;20047;-17
2022/05/02 06:45:35;;;;;;;1.77;1.10;;;20.20;56.00;;;;;;4972929;28;20055;-17
2022/05/02 06:48:08;;;;;;;1.20;1.20;;;20.20;55.90;;;;;;4967472;28;20559;-17
2022/05/02 06:50:36;;;;;;;2.17;1.30;;;20.20;55.90;;;;;;4998315;28;20408;-16
2022/05/02 06:53:18;;;;;;;2.00;1.90;;;20.20;55.50;;;;;;4973809;28;20442;-17
2022/05/02 06:55:49;;;;;;;3.22;3.03;;;20.00;55.50;;;;;;4974769;28;20038;-17
2022/05/02 06:58:27;;;;;;;3.17;2.97;;;19.80;55.70;;;;;;4972642;28;20042;-16
2022/05/02 07:01:12;;;;;;;3.30;3.08;;;19.70;55.60;;;;;;4973502;28;20050;-16
2022/05/02 07:03:47;;;;;;;3.22;3.03;;;19.60;55.70;;;;;;4972331;28;20086;-16
2022/05/02 07:06:15;;;;;;;3.70;3.50;;;19.60;55.80;;;;;;4999887;28;20125;-16
2022/05/02 07:08:52;;;;;;;3.50;3.30;;;19.60;55.80;;;;;;4975098;28;20125;-16
2022/05/02 07:11:19;;;;;;;3.88;3.22;;;19.50;55.70;;;;;;4973983;28;20443;-16
2022/05/02 07:13:50;;;;;;;3.80;3.33;;;19.50;55.70;;;;;;4969363;28;20043;-17
2022/05/02 07:16:22;;;;;;;3.28;3.03;;;19.50;55.70;;;;;;4970520;28;20047;-17
2022/05/02 07:19:25;;;;;;;3.50;3.30;;;19.40;55.90;;;;;;4971726;28;20082;-16
2022/05/02 07:21:57;;;;;;;4.32;3.35;;;19.40;55.90;;;;;;4975125;28;20035;-16
2022/05/02 07:24:38;;;;;;;3.88;3.67;;;19.40;55.90;;;;;;4969542;28;20039;-16
2022/05/02 07:27:11;;;;;;;3.60;3.40;;;19.40;55.80;;;;;;4969906;28;20109;-17
2022/05/02 07:29:37;;;;;;;3.65;3.30;;;19.40;55.90;;;;;;5001229;28;20043;-16
2022/05/02 07:32:03;;;;;;;5.05;3.38;;;19.40;55.90;;;;;;4966668;28;20126;-17
2022/05/02 07:34:29;;;;;;;3.72;3.42;;;19.40;55.80;;;;;;4968179;28;20166;-16
2022/05/02 07:36:55;;;;;;;3.58;3.30;;;19.30;55.80;;;;;;4973495;28;20631;-17
2022/05/02 07:39:22;;;;;;;3.55;3.35;;;19.40;55.90;;;;;;4972606;28;20520;-17
2022/05/02 07:41:49;;;;;;;3.22;3.03;;;19.40;56.00;;;;;;4973450;28;20062;-17
2022/05/02 07:44:14;;;;;;;3.40;3.20;;;19.30;56.30;;;;;;4972982;28;20049;-16
2022/05/02 07:46:42;;;;;;;3.47;3.17;;;19.20;56.30;;;;;;4972631;28;20594;-17
2022/05/02 07:49:08;;;;;;;3.38;3.08;;;19.30;56.20;;;;;;4970752;28;20081;-16
2022/05/02 07:51:50;;;;;;;3.28;3.08;;;19.40;55.90;;;;;;4971496;28;20184;-17
2022/05/02 07:54:20;;;;;;;4.30;2.92;;;19.20;56.00;;;;;;4973445;28;20057;-16
2022/05/02 07:56:47;;;;;;;3.20;3.00;;;19.20;55.80;;;;;;4961845;28;20110;-17
2022/05/02 07:59:14;;;;;;;3.00;2.85;;;19.20;55.70;;;;;;4973139;28;20132;-16
2022/05/02 08:01:40;;;;;;;3.20;3.00;;;19.10;55.80;;;;;;4973913;28;20031;-16
2022/05/02 08:04:05;;;;;;;2.53;2.42;;;19.20;55.50;;;;;;4974745;28;20499;-17
2022/05/02 08:06:49;;;;;;;2.80;2.70;;;19.30;55.10;;;;;;4972549;28;20046;-16
2022/05/02 08:09:23;;;;;;;3.15;2.90;;;19.10;55.50;;;;;;4973265;28;20049;-16
2022/05/02 08:12:08;;;;;;;3.72;3.10;;;19.10;55.50;;;;;;4974548;28;20047;-17
2022/05/02 08:14:54;;;;;;;3.30;3.08;;;19.00;55.60;;;;;;4975112;28;20073;-16
2022/05/02 08:17:22;;;;;;;2.63;2.53;;;19.10;55.40;;;;;;4971355;28;20137;-16
2022/05/02 08:19:51;;;;;;;3.38;3.03;;;19.10;55.40;;;;;;4973555;28;20047;-17
2022/05/02 08:28:02;;;;;;;2.65;2.47;;;19.40;55.10;;;;;;4961119;28;20054;-16
2022/05/02 08:30:32;;;;;;;3.22;2.08;;;19.50;54.90;;;;;;4964712;28;20061;-17
2022/05/02 08:33:07;;;;;;;1.40;1.40;;;19.50;54.70;;;;;;4992938;28;20066;-16
2022/05/02 08:35:55;;;;;;;2.53;2.08;;;19.50;54.60;;;;;;4962987;28;20079;-16
2022/05/02 08:38:51;;;;;;;1.98;1.88;;;19.50;54.80;;;;;;4959746;28;20055;-16
2022/05/02 08:41:28;;;;;;;1.73;1.63;;;19.50;54.80;;;;;;4962719;28;20356;-16
2022/05/02 08:44:16;;;;;;;1.80;1.70;;;19.50;54.70;;;;;;4963495;28;20559;-17
2022/05/02 08:47:10;;;;;;;1.88;1.77;;;19.50;54.60;;;;;;4961378;28;20146;-17
2022/05/02 08:49:42;;;;;;;2.20;2.10;;;19.60;54.40;;;;;;4960776;28;20133;-17
2022/05/02 08:52:13;;;;;;;1.80;1.70;;;19.70;54.20;;;;;;4962969;28;20077;-16
2022/05/02 08:55:09;;;;;;;2.00;1.90;;;19.80;54.40;;;;;;4964166;28;20058;-16
2022/05/02 08:58:05;;;;;;;2.00;1.90;;;19.80;53.70;;;;;;4954941;28;20515;-16
2022/05/02 09:00:55;;;;;;;1.92;1.83;;;19.70;53.60;;;;;;4961650;28;20082;-16
2022/05/02 09:03:49;;;;;;;2.20;2.00;;;19.70;53.40;;;;;;4962405;28;20046;-16
2022/05/02 09:06:50;;;;;;;1.98;1.88;;;19.80;53.60;;;;;;4961391;28;20059;-16
2022/05/02 09:09:19;;;;;;;1.83;1.73;;;19.80;53.50;;;;;;4962038;28;20050;-16
2022/05/02 09:11:50;;;;;;;1.90;1.80;;;19.90;53.20;;;;;;4963345;28;20804;-16
2022/05/02 09:14:44;;;;;;;2.47;1.88;;;19.90;53.20;;;;;;4963530;28;20504;-17
2022/05/02 09:17:28;;;;;;;2.37;2.17;;;20.00;53.20;;;;;;4958196;28;20055;-17
2022/05/02 09:20:05;;;;;;;2.45;2.25;;;20.10;53.80;;;;;;4965644;28;20377;-17
2022/05/02 09:22:50;;;;;;;2.20;2.10;;;20.10;52.90;;;;;;4976818;28;20051;-17
2022/05/02 09:25:35;;;;;;;;;;;20.20;52.90;;;;;;4977900;28;20407;-17
2022/05/02 09:28:20;;;;;;;;;;;20.20;52.60;;;;;;4970251;28;19918;-17
2022/05/02 09:31:13;;;;;;;3.65;1.95;;;20.20;53.00;;;;;;4968683;28;20005;-17
2022/05/02 09:34:03;;;;;;;1.92;1.58;;;20.30;52.80;;;;;;4977599;28;20507;-16
2022/05/02 09:36:32;;;;;;;1.98;1.88;;;20.20;52.40;;;;;;4968943;28;20048;-17
2022/05/02 09:39:10;;;;;;;1.98;1.88;;;20.20;52.60;;;;;;4974226;28;20388;-17
2022/05/02 09:41:55;;;;;;;3.28;1.90;;;20.20;52.50;;;;;;4976463;28;20475;-17
2022/05/02 09:51:10;;;;;;;2.47;1.60;;;20.30;52.80;;;;;;4973731;28;20514;-17
2022/05/02 09:53:44;;;;;;;1.50;1.40;;;20.30;52.10;;;;;;4961657;28;20500;-17
2022/05/02 09:56:54;;;;;;;1.60;1.50;;;20.40;53.10;;;;;;4960081;28;20133;-17
2022/05/02 09:59:26;;;;;;;1.55;1.45;;;20.40;53.10;;;;;;4962285;28;20439;-16
2022/05/02 10:02:01;;;;;;;1.40;1.40;;;20.40;52.90;;;;;;4961653;28;20074;-16
2022/05/02 10:04:36;;;;;;;1.40;1.30;;;20.50;52.80;;;;;;4965724;28;20266;-16
2022/05/02 10:07:11;;;;;;;1.70;1.40;;;20.50;52.60;;;;;;4973340;28;20130;-16
2022/05/02 10:09:49;;;;;;;1.08;1.00;;;20.50;52.70;;;;;;4975102;28;20143;-16
2022/05/02 10:12:26;;;;;;;1.38;1.30;;;20.50;52.10;;;;;;4967052;28;20126;-16
2022/05/02 10:15:12;;;;;;;1.40;1.30;;;20.50;52.10;;;;;;4960209;28;20043;-16
2022/05/02 10:17:53;;;;;;;1.38;1.27;;;20.60;52.20;;;;;;5002318;28;20109;-16
2022/05/02 10:20:19;;;;;;;2.10;1.20;;;20.60;51.80;;;;;;4976357;28;20047;-16
2022/05/02 10:22:47;;;;;;;2.45;1.58;;;20.60;52.00;;;;;;4967588;28;20039;-16
2022/05/02 10:25:42;;;;;;;2.75;1.50;;;20.60;51.80;;;;;;4975070;28;20039;-16
2022/05/02 10:28:12;;;;;;;1.30;1.20;;;20.60;52.00;;;;;;4956930;28;20119;-16
2022/05/02 10:30:41;;;;;;;1.15;1.13;;;20.60;52.00;;;;;;4973442;28;20054;-16
2022/05/02 10:33:11;;;;;;;1.10;1.02;;;20.60;51.70;;;;;;4975103;28;20110;-16
2022/05/02 10:35:37;;;;;;;1.25;1.15;;;20.70;51.90;;;;;;4975362;28;20054;-16
2022/05/02 10:38:04;;;;;;;3.15;1.20;;;20.70;51.70;;;;;;4974844;28;20039;-17
2022/05/02 10:40:40;;;;;;;1.55;1.45;;;20.70;51.70;;;;;;4976285;28;20134;-16
2022/05/02 10:43:10;;;;;;;1.30;1.20;;;20.70;51.70;;;;;;4972699;28;20039;-16
2022/05/02 10:45:37;;;;;;;1.27;1.27;;;20.70;51.70;;;;;;4976503;28;20054;-16
2022/05/02 10:48:18;;;;;;;1.05;1.00;;;20.70;51.70;;;;;;4973465;28;20043;-16
2022/05/02 10:50:58;;;;;;;1.10;1.10;;;20.70;51.70;;;;;;4957081;28;20047;-16
2022/05/02 10:53:36;;;;;;;1.00;1.00;;;20.70;51.80;;;;;;4974512;28;20057;-16
2022/05/02 10:56:15;;;;;;;1.13;1.13;;;20.70;51.60;;;;;;4957573;28;20051;-16
2022/05/02 10:58:42;;;;;;;1.38;1.27;;;20.70;51.80;;;;;;4957085;28;20043;-16
2022/05/02 11:01:07;;;;;;;1.30;1.20;;;20.70;51.60;;;;;;4996590;28;20043;-16
2022/05/02 11:03:58;;;;;;;1.30;1.30;;;20.70;51.60;;;;;;4975474;28;20096;-16
2022/05/02 11:06:55;;;;;;;1.38;1.27;;;20.70;51.70;;;;;;4975912;28;20134;-16
2022/05/02 11:09:37;;;;;;;1.20;1.10;;;20.70;51.70;;;;;;4973354;28;20101;-16
2022/05/02 11:12:03;;;;;;;1.13;1.13;;;20.80;51.60;;;;;;4975331;28;20412;-16
2022/05/02 11:14:51;;;;;;;1.10;1.10;;;20.80;51.80;;;;;;4625885;28;10000643;-16
2022/05/02 11:17:49;;;;;;;1.48;1.38;;;20.80;51.70;;;;;;4987272;28;20059;-16
2022/05/02 11:20:41;;;;;;;1.30;1.20;;;20.80;51.70;;;;;;4954115;28;20134;-16
2022/05/02 11:23:28;;;;;;;1.95;1.30;;;20.80;51.80;;;;;;4971994;28;20713;-16
2022/05/02 11:26:09;;;;;;;1.30;1.20;;;20.80;51.80;;;;;;4970450;28;20047;-16
2022/05/02 11:28:53;;;;;;;1.40;1.40;;;20.80;51.90;;;;;;4969441;28;20050;-16
2022/05/02 11:31:58;;;;;;;1.13;1.13;;;20.80;52.10;;;;;;4968060;28;20076;-16
2022/05/02 11:34:28;;;;;;;1.17;1.17;;;20.80;52.10;;;;;;4964186;28;20035;-16
2022/05/02 11:36:55;;;;;;;1.60;1.50;;;20.70;52.00;;;;;;4959756;28;20043;-16
2022/05/02 11:39:44;;;;;;;1.40;1.30;;;20.70;52.00;;;;;;4971754;28;20053;-16
2022/05/02 11:42:15;;;;;;;1.48;1.38;;;20.70;52.00;;;;;;4962474;28;20057;-16
2022/05/02 11:45:00;;;;;;;2.05;1.50;;;20.80;52.10;;;;;;4966960;28;20058;-20
2022/05/02 11:47:54;;;;;;;1.17;1.17;;;20.80;52.00;;;;;;4959704;28;20749;-16
2022/05/02 11:50:24;;;;;;;1.42;1.33;;;20.80;52.00;;;;;;4959310;28;20051;-17
2022/05/02 11:52:54;;;;;;;1.30;1.20;;;20.90;51.90;;;;;;4970657;28;20051;-16
2022/05/02 11:55:31;;;;;;;1.48;1.38;;;20.90;51.90;;;;;;4975077;28;20054;-16
2022/05/02 11:58:13;;;;;;;1.40;1.30;;;20.90;51.80;;;;;;4975586;28;20043;-16
2022/05/02 12:00:38;;;;;;;1.30;1.30;;;20.90;51.90;;;;;;4967534;28;20043;-16
2022/05/02 12:03:17;;;;;;;1.42;1.33;;;20.90;51.90;;;;;;4958898;28;20039;-16
2022/05/02 12:05:57;;;;;;;1.60;1.50;;;20.90;51.80;;;;;;4966648;28;20047;-16
2022/05/02 12:08:44;;;;;;;1.45;1.30;;;21.00;51.70;;;;;;4998429;28;20057;-17
2022/05/02 12:11:11;;;;;;;1.30;1.20;;;21.00;51.80;;;;;;4976670;28;20047;-16
2022/05/02 12:13:38;;;;;;;1.20;1.20;;;21.00;51.80;;;;;;4972941;28;20034;-16
2022/05/02 12:16:14;;;;;;;1.50;1.40;;;21.00;51.90;;;;;;4977011;28;20500;-16
2022/05/02 12:18:53;;;;;;;1.77;1.33;;;21.00;51.70;;;;;;4974672;28;20133;-16
2022/05/02 12:21:36;;;;;;;1.42;1.40;;;21.10;51.90;;;;;;4975375;28;20045;-17
2022/05/02 12:24:03;;;;;;;1.23;1.23;;;21.10;51.90;;;;;;4982538;28;20371;-16
2022/05/02 12:26:29;;;;;;;1.15;1.15;;;21.10;51.90;;;;;;4974633;28;20043;-16
2022/05/02 12:28:58;;;;;;;1.50;1.50;;;21.10;51.90;;;;;;4974783;28;20041;-16
2022/05/02 12:31:27;;;;;;;1.38;1.30;;;21.10;52.00;;;;;;4972377;28;20476;-17
2022/05/02 12:33:57;;;;;;;1.30;1.30;;;21.10;51.90;;;;;;4973383;28;20039;-16
2022/05/02 12:36:25;;;;;;;1.17;1.17;;;21.20;52.00;;;;;;4975964;28;20054;-16
2022/05/02 12:39:00;;;;;;;1.27;1.17;;;21.10;52.00;;;;;;4978659;28;20085;-16
2022/05/02 12:41:27;;;;;;;1.40;1.30;;;21.20;52.00;;;;;;4963812;28;20125;-17
2022/05/02 12:43:56;;;;;;;1.17;1.17;;;21.10;52.00;;;;;;4978467;28;20038;-16
2022/05/02 12:46:26;;;;;;;1.67;1.58;;;21.10;52.30;;;;;;4978399;28;20054;-16
2022/05/02 12:48:56;;;;;;;1.50;1.40;;;21.10;52.50;;;;;;4977017;28;20046;-16
2022/05/02 12:51:27;;;;;;;1.65;1.55;;;21.10;52.50;;;;;;4973227;28;20065;-16
2022/05/02 12:54:10;;;;;;;1.70;1.60;;;21.00;52.10;;;;;;4976281;28;20046;-16
2022/05/02 13:02:39;;;;;;;;;;;20.90;51.10;;;;;;4971916;28;20467;-16
2022/05/02 13:05:06;;;;;;;3.53;1.73;;;20.90;51.10;;;;;;4972744;28;19921;-15
2022/05/02 13:07:38;;;;;;;1.67;1.63;;;20.90;50.90;;;;;;4973531;28;20038;-16
2022/05/02 13:10:05;;;;;;;1.55;1.45;;;20.90;50.60;;;;;;4976119;28;20050;-17
2022/05/02 13:12:31;;;;;;;2.00;1.90;;;20.90;50.90;;;;;;4974076;28;20046;-17
2022/05/02 13:15:00;;;;;;;1.80;1.70;;;20.90;50.60;;;;;;4976496;28;20096;-16
2022/05/02 13:17:25;;;;;;;3.25;1.50;;;21.00;50.40;;;;;;4991816;28;20086;-16
2022/05/02 13:19:51;;;;;;;1.83;1.73;;;21.00;50.20;;;;;;4975586;28;20074;-16
2022/05/02 13:22:16;;;;;;;2.42;2.30;;;20.90;50.50;;;;;;4973339;28;20050;-16
2022/05/02 13:24:54;;;;;;;1.90;1.80;;;20.90;50.20;;;;;;4969871;28;20058;-18
2022/05/02 13:27:25;;;;;;;2.03;1.77;;;20.90;50.40;;;;;;4971472;28;20484;-16
2022/05/02 13:30:11;;;;;;;1.80;1.70;;;20.90;50.10;;;;;;4999589;28;20075;-16
2022/05/02 13:32:52;;;;;;;2.25;2.15;;;20.90;49.90;;;;;;4970138;28;20109;-16
2022/05/02 13:35:23;;;;;;;1.67;1.58;;;21.00;50.10;;;;;;4939405;28;20043;-16
2022/05/02 13:38:01;;;;;;;2.03;1.92;;;21.00;49.70;;;;;;4973255;28;20063;-16